Time;durP1;ratioP1;P1;durP2;ratioP2;P2;SDS_P1;SDS_P2;PMS_P1;PMS_P2;Temp;Humidity;BMP_temperature;BMP_pressure;BME280_temperature;BME280_humidity;BME280_pressure;Samples;Min_cycle;Max_cycle;Signal;HPM_P1;HPM_P2
2023/03/24 00:01:53;;;;;;;;;;;;;;;;;;5017054;28;19929;-25
2023/03/24 00:04:20;;;;;;;;;;;;;;;;;;5016971;28;20225;-25
2023/03/24 00:06:48;;;;;;;;;;;;;;;;;;5017339;28;20233;-25
2023/03/24 00:09:14;;;;;;;;;;;;;;;;;;5017267;28;20465;-25
2023/03/24 00:11:40;;;;;;;;;;;;;;;;;;5017147;28;20009;-26
2023/03/24 00:14:05;;;;;;;;;;;;;;;;;;5017075;28;20348;-25
2023/03/24 00:16:33;;;;;;;;;;;;;;;;;;5016901;28;20346;-25
2023/03/24 00:18:59;;;;;;;;;;;;;;;;;;5016841;28;19948;-25
2023/03/24 00:21:25;;;;;;;;;;;;;;;;;;5016754;28;19909;-26
2023/03/24 00:23:53;;;;;;;;;;;;;;;;;;5016707;28;20000;-26
2023/03/24 00:26:19;;;;;;;;;;;;;;;;;;5016650;28;19916;-23
2023/03/24 00:28:45;;;;;;;;;;;;;;;;;;5016827;28;19910;-23
2023/03/24 00:31:13;;;;;;;;;;;;;;;;;;5016398;28;19913;-23
2023/03/24 00:33:39;;;;;;;;;;;;;;;;;;5015346;28;20260;-23
2023/03/24 00:36:05;;;;;;;;;;;;;;;;;;5016718;28;19909;-24
2023/03/24 00:38:33;;;;;;;;;;;;;;;;;;5016324;28;19920;-23
2023/03/24 00:40:59;;;;;;;;;;;;;;;;;;5016353;28;19916;-24
2023/03/24 00:43:25;;;;;;;;;;;;;;;;;;5016238;28;19913;-23
2023/03/24 00:45:51;;;;;;;;;;;;;;;;;;5016478;28;19909;-23
2023/03/24 00:48:18;;;;;;;;;;;;;;;;;;5016535;28;19910;-25
2023/03/24 00:50:45;;;;;;;;;;;;;;;;;;5016062;28;19914;-25
2023/03/24 00:53:14;;;;;;;;;;;;;;;;;;5016092;28;19909;-25
2023/03/24 00:55:40;;;;;;;;;;;;;;;;;;5016361;28;20332;-25
2023/03/24 00:58:06;;;;;;;;;;;;;;;;;;5016012;28;19921;-25
2023/03/24 01:00:32;;;;;;;;;;;;;;;;;;5016283;28;19909;-25
2023/03/24 01:02:58;;;;;;;;;;;;;;;;;;5015738;28;19952;-25
2023/03/24 01:05:24;;;;;;;;;;;;;;;;;;5016151;28;19920;-25
2023/03/24 01:07:55;;;;;;;;;;;;;;;;;;5016150;28;19917;-25
2023/03/24 01:10:25;;;;;;;;;;;;;;;;;;5015868;28;19920;-25
2023/03/24 01:12:51;;;;;;;;;;;;;;;;;;5015643;28;19992;-25
2023/03/24 01:15:17;;;;;;;;;;;;;;;;;;5016020;28;20316;-25
2023/03/24 01:17:45;;;;;;;;;;;;;;;;;;5015938;28;19920;-25
2023/03/24 01:20:11;;;;;;;;;;;;;;;;;;5015903;28;20241;-25
2023/03/24 01:22:43;;;;;;;;;;;;;;;;;;5015574;28;19921;-25
2023/03/24 01:25:09;;;;;;;;;;;;;;;;;;5015814;28;19910;-25
2023/03/24 01:27:35;;;;;;;;;;;;;;;;;;5015798;28;20299;-25
2023/03/24 01:30:02;;;;;;;;;;;;;;;;;;5015786;28;19948;-25
2023/03/24 01:32:29;;;;;;;;;;;;;;;;;;5015258;28;20351;-25
2023/03/24 01:34:55;;;;;;;;;;;;;;;;;;5015785;28;19924;-25
2023/03/24 01:37:22;;;;;;;;;;;;;;;;;;5015454;28;20008;-25
2023/03/24 01:39:48;;;;;;;;;;;;;;;;;;5015635;28;19921;-25
2023/03/24 01:42:14;;;;;;;;;;;;;;;;;;5015301;28;19914;-25
2023/03/24 01:44:40;;;;;;;;;;;;;;;;;;5014075;28;20311;-25
2023/03/24 01:47:06;;;;;;;;;;;;;;;;;;5015304;28;20008;-25
2023/03/24 01:49:33;;;;;;;;;;;;;;;;;;5015259;28;20336;-25
2023/03/24 01:51:59;;;;;;;;;;;;;;;;;;5015058;28;19914;-25
2023/03/24 01:54:26;;;;;;;;;;;;;;;;;;5015446;28;20291;-25
2023/03/24 01:56:52;;;;;;;;;;;;;;;;;;5015308;28;20232;-25
2023/03/24 01:59:18;;;;;;;;;;;;;;;;;;5015107;28;19917;-26
2023/03/24 02:01:44;;;;;;;;;;;;;;;;;;5015034;28;19909;-25
2023/03/24 02:04:10;;;;;;;;;;;;;;;;;;5014851;28;19921;-24
2023/03/24 02:06:39;;;;;;;;;;;;;;;;;;5013974;28;20060;-23
2023/03/24 02:09:06;;;;;;;;;;;;;;;;;;5014940;28;20020;-23
2023/03/24 02:11:32;;;;;;;;;;;;;;;;;;5014864;28;19921;-23
2023/03/24 02:13:58;;;;;;;;;;;;;;;;;;5015127;28;19920;-23
2023/03/24 02:16:24;;;;;;;;;;;;;;;;;;5015107;28;20323;-24
2023/03/24 02:18:51;;;;;;;;;;;;;;;;;;5015159;28;19910;-23
2023/03/24 02:21:17;;;;;;;;;;;;;;;;;;5013877;28;19952;-23
2023/03/24 02:23:43;;;;;;;;;;;;;;;;;;5014771;28;20305;-23
2023/03/24 02:26:09;;;;;;;;;;;;;;;;;;5015010;28;19967;-24
2023/03/24 02:28:35;;;;;;;;;;;;;;;;;;5014735;28;19909;-24
2023/03/24 02:31:02;;;;;;;;;;;;;;;;;;5014899;28;19914;-24
2023/03/24 02:33:28;;;;;;;;;;;;;;;;;;5014663;28;19909;-24
2023/03/24 02:35:54;;;;;;;;;;;;;;;;;;5014890;28;19920;-24
2023/03/24 02:38:20;;;;;;;;;;;;;;;;;;5014893;28;20056;-24
2023/03/24 02:40:46;;;;;;;;;;;;;;;;;;5014652;28;19953;-24
2023/03/24 02:43:12;;;;;;;;;;;;;;;;;;5014816;28;19921;-24
2023/03/24 02:45:38;;;;;;;;;;;;;;;;;;5014911;28;20000;-24
2023/03/24 02:48:04;;;;;;;;;;;;;;;;;;5014580;28;20345;-24
2023/03/24 02:50:30;;;;;;;;;;;;;;;;;;5014596;28;20289;-24
2023/03/24 02:52:58;;;;;;;;;;;;;;;;;;5014603;28;19913;-24
2023/03/24 02:55:24;;;;;;;;;;;;;;;;;;5014491;28;19910;-24
2023/03/24 02:57:51;;;;;;;;;;;;;;;;;;5017553;28;19945;-24
2023/03/24 03:00:18;;;;;;;;;;;;;;;;;;5018177;28;20355;-24
2023/03/24 03:02:44;;;;;;;;;;;;;;;;;;5016887;28;19929;-24
2023/03/24 03:05:12;;;;;;;;;;;;;;;;;;5017050;28;19910;-24
2023/03/24 03:07:40;;;;;;;;;;;;;;;;;;5018084;28;19992;-24
2023/03/24 03:10:06;;;;;;;;;;;;;;;;;;5018246;28;20237;-24
2023/03/24 03:12:32;;;;;;;;;;;;;;;;;;5017865;28;19914;-24
2023/03/24 03:14:58;;;;;;;;;;;;;;;;;;5017941;28;20348;-24
2023/03/24 03:17:24;;;;;;;;;;;;;;;;;;5017819;28;19955;-24
2023/03/24 03:19:51;;;;;;;;;;;;;;;;;;5017867;28;20252;-24
2023/03/24 03:22:17;;;;;;;;;;;;;;;;;;5017892;28;19909;-24
2023/03/24 03:24:43;;;;;;;;;;;;;;;;;;5017874;28;19982;-24
2023/03/24 03:27:09;;;;;;;;;;;;;;;;;;5018205;28;20332;-24
2023/03/24 03:29:35;;;;;;;;;;;;;;;;;;5017612;28;19910;-24
2023/03/24 03:32:06;;;;;;;;;;;;;;;;;;5017860;28;19921;-24
2023/03/24 03:34:32;;;;;;;;;;;;;;;;;;5017618;28;19909;-24
2023/03/24 03:36:58;;;;;;;;;;;;;;;;;;5017541;28;19985;-24
2023/03/24 03:39:24;;;;;;;;;;;;;;;;;;5017508;28;19944;-23
2023/03/24 03:41:50;;;;;;;;;;;;;;;;;;5017379;28;19906;-23
2023/03/24 03:44:16;;;;;;;;;;;;;;;;;;5017326;28;20311;-23
2023/03/24 03:46:42;;;;;;;;;;;;;;;;;;5017537;28;19933;-23
2023/03/24 03:49:08;;;;;;;;;;;;;;;;;;5017454;28;19910;-23
2023/03/24 03:51:34;;;;;;;;;;;;;;;;;;5017134;28;20317;-23
2023/03/24 03:54:00;;;;;;;;;;;;;;;;;;5017362;28;19940;-24
2023/03/24 03:56:26;;;;;;;;;;;;;;;;;;5017048;28;19910;-23
2023/03/24 03:58:52;;;;;;;;;;;;;;;;;;5017096;28;19936;-23
2023/03/24 04:01:18;;;;;;;;;;;;;;;;;;5017037;28;19916;-23
2023/03/24 04:03:44;;;;;;;;;;;;;;;;;;5016737;28;20451;-24
2023/03/24 04:06:12;;;;;;;;;;;;;;;;;;5017005;28;19999;-23
2023/03/24 04:08:38;;;;;;;;;;;;;;;;;;5016608;28;19909;-23
2023/03/24 04:11:04;;;;;;;;;;;;;;;;;;5017027;28;19983;-23
2023/03/24 04:13:30;;;;;;;;;;;;;;;;;;5016833;28;19913;-24
2023/03/24 04:15:56;;;;;;;;;;;;;;;;;;5016752;28;20308;-24
2023/03/24 04:18:22;;;;;;;;;;;;;;;;;;5016997;28;19910;-24
2023/03/24 04:20:48;;;;;;;;;;;;;;;;;;5016642;28;19910;-24
2023/03/24 04:23:17;;;;;;;;;;;;;;;;;;5016525;28;19913;-23
2023/03/24 04:25:43;;;;;;;;;;;;;;;;;;5016817;28;19976;-24
2023/03/24 04:28:09;;;;;;;;;;;;;;;;;;5016458;28;19921;-24
2023/03/24 04:30:36;;;;;;;;;;;;;;;;;;5016426;28;19909;-23
2023/03/24 04:33:02;;;;;;;;;;;;;;;;;;5016308;28;20363;-29
2023/03/24 04:35:31;;;;;;;;;;;;;;;;;;5016334;28;19909;-23
2023/03/24 04:37:57;;;;;;;;;;;;;;;;;;5016579;28;20334;-24
2023/03/24 04:40:23;;;;;;;;;;;;;;;;;;5016400;28;19949;-23
2023/03/24 04:42:51;;;;;;;;;;;;;;;;;;5016115;28;20248;-24
2023/03/24 04:45:17;;;;;;;;;;;;;;;;;;5016148;28;20222;-24
2023/03/24 04:47:43;;;;;;;;;;;;;;;;;;5016491;28;20252;-24
2023/03/24 04:50:10;;;;;;;;;;;;;;;;;;5014986;28;20012;-23
2023/03/24 04:52:35;;;;;;;;;;;;;;;;;;5015938;28;19920;-23
2023/03/24 04:55:02;;;;;;;;;;;;;;;;;;5016198;28;19921;-23
2023/03/24 04:57:28;;;;;;;;;;;;;;;;;;5015762;28;19921;-23
2023/03/24 04:59:53;;;;;;;;;;;;;;;;;;5015686;28;19917;-23
2023/03/24 05:02:20;;;;;;;;;;;;;;;;;;5015550;28;19966;-24
2023/03/24 05:04:46;;;;;;;;;;;;;;;;;;5015814;28;19917;-24
2023/03/24 05:07:14;;;;;;;;;;;;;;;;;;5015421;28;19910;-24
2023/03/24 05:09:40;;;;;;;;;;;;;;;;;;5015290;28;20340;-24
2023/03/24 05:12:06;;;;;;;;;;;;;;;;;;5014818;28;20260;-24
2023/03/24 05:14:32;;;;;;;;;;;;;;;;;;5015291;28;20256;-24
2023/03/24 05:16:58;;;;;;;;;;;;;;;;;;5015271;28;19909;-24
2023/03/24 05:19:24;;;;;;;;;;;;;;;;;;5014631;28;20202;-24
2023/03/24 05:21:50;;;;;;;;;;;;;;;;;;5015433;28;19959;-25
2023/03/24 05:24:16;;;;;;;;;;;;;;;;;;5015588;28;19910;-24
2023/03/24 05:26:42;;;;;;;;;;;;;;;;;;5015558;28;20352;-24
2023/03/24 05:29:08;;;;;;;;;;;;;;;;;;5016200;28;19920;-24
2023/03/24 05:31:35;;;;;;;;;;;;;;;;;;5015268;28;20305;-25
2023/03/24 05:34:00;;;;;;;;;;;;;;;;;;5015091;28;20305;-25
2023/03/24 05:36:26;;;;;;;;;;;;;;;;;;5015185;28;19910;-25
2023/03/24 05:38:52;;;;;;;;;;;;;;;;;;5015433;28;19913;-25
2023/03/24 05:41:18;;;;;;;;;;;;;;;;;;5015409;28;20252;-25
2023/03/24 05:43:44;;;;;;;;;;;;;;;;;;5015074;28;19988;-25
2023/03/24 05:46:10;;;;;;;;;;;;;;;;;;5014958;28;19917;-25
2023/03/24 05:48:36;;;;;;;;;;;;;;;;;;5015010;28;19909;-25
2023/03/24 05:51:02;;;;;;;;;;;;;;;;;;5014529;28;19972;-25
2023/03/24 05:53:28;;;;;;;;;;;;;;;;;;5014268;28;19910;-25
2023/03/24 05:55:57;;;;;;;;;;;;;;;;;;5014651;28;20285;-25
2023/03/24 05:58:23;;;;;;;;;;;;;;;;;;5014616;28;20003;-23
2023/03/24 06:00:49;;;;;;;;;;;;;;;;;;5014381;28;19945;-25
2023/03/24 06:03:16;;;;;;;;;;;;;;;;;;5014316;28;19921;-25
2023/03/24 06:05:44;;;;;;;;;;;;;;;;;;5014379;28;19936;-24
2023/03/24 06:08:10;;;;;;;;;;;;;;;;;;5014515;28;19909;-24
2023/03/24 06:10:36;;;;;;;;;;;;;;;;;;5013418;28;19916;-24
2023/03/24 06:13:02;;;;;;;;;;;;;;;;;;5014451;28;19913;-25
2023/03/24 06:15:29;;;;;;;;;;;;;;;;;;5014460;28;19916;-24
2023/03/24 06:17:55;;;;;;;;;;;;;;;;;;5014168;28;19952;-24
2023/03/24 06:20:21;;;;;;;;;;;;;;;;;;5013968;28;20018;-24
2023/03/24 06:22:47;;;;;;;;;;;;;;;;;;5014277;28;19909;-24
2023/03/24 06:25:14;;;;;;;;;;;;;;;;;;5014664;28;20056;-25
2023/03/24 06:27:41;;;;;;;;;;;;;;;;;;5014658;28;20236;-24
2023/03/24 06:30:07;;;;;;;;;;;;;;;;;;5014213;28;19928;-24
2023/03/24 06:32:33;;;;;;;;;;;;;;;;;;5017912;28;20237;-25
2023/03/24 06:34:59;;;;;;;;;;;;;;;;;;5018293;28;19909;-25
2023/03/24 06:37:26;;;;;;;;;;;;;;;;;;5017901;28;19960;-24
2023/03/24 06:39:52;;;;;;;;;;;;;;;;;;5016766;28;19992;-24
2023/03/24 06:42:18;;;;;;;;;;;;;;;;;;5018048;28;19956;-25
2023/03/24 06:44:44;;;;;;;;;;;;;;;;;;5017941;28;20406;-24
2023/03/24 06:47:10;;;;;;;;;;;;;;;;;;5017507;28;20280;-24
2023/03/24 06:49:36;;;;;;;;;;;;;;;;;;5017722;28;19920;-25
2023/03/24 06:52:02;;;;;;;;;;;;;;;;;;5017480;28;20019;-24
2023/03/24 06:54:28;;;;;;;;;;;;;;;;;;5017772;28;19909;-25
2023/03/24 06:56:55;;;;;;;;;;;;;;;;;;5017827;28;19905;-25
2023/03/24 06:59:22;;;;;;;;;;;;;;;;;;5017983;28;20004;-24
2023/03/24 07:01:49;;;;;;;;;;;;;;;;;;5017458;28;19905;-25
2023/03/24 07:04:15;;;;;;;;;;;;;;;;;;5017361;28;19933;-24
2023/03/24 07:06:41;;;;;;;;;;;;;;;;;;5017808;28;19948;-24
2023/03/24 07:09:07;;;;;;;;;;;;;;;;;;5017305;28;20331;-24
2023/03/24 07:11:33;;;;;;;;;;;;;;;;;;5017437;28;19913;-25
2023/03/24 07:13:59;;;;;;;;;;;;;;;;;;5017277;28;19910;-24
2023/03/24 07:16:25;;;;;;;;;;;;;;;;;;5016842;28;19910;-24
2023/03/24 07:18:51;;;;;;;;;;;;;;;;;;5016965;28;19910;-24
2023/03/24 07:21:17;;;;;;;;;;;;;;;;;;5017060;28;19921;-24
2023/03/24 07:23:43;;;;;;;;;;;;;;;;;;5016697;28;19910;-24
2023/03/24 07:26:09;;;;;;;;;;;;;;;;;;5016806;28;20059;-24
2023/03/24 07:28:35;;;;;;;;;;;;;;;;;;5016688;28;20259;-25
2023/03/24 07:31:01;;;;;;;;;;;;;;;;;;5016620;28;20356;-25
2023/03/24 07:33:27;;;;;;;;;;;;;;;;;;5016686;28;19999;-25
2023/03/24 07:35:53;;;;;;;;;;;;;;;;;;5016709;28;19961;-24
2023/03/24 07:38:19;;;;;;;;;;;;;;;;;;5016812;28;19914;-24
2023/03/24 07:40:46;;;;;;;;;;;;;;;;;;5016884;28;19921;-25
2023/03/24 07:43:13;;;;;;;;;;;;;;;;;;5016195;28;19910;-24
2023/03/24 07:45:39;;;;;;;;;;;;;;;;;;5016965;28;20248;-24
2023/03/24 07:48:05;;;;;;;;;;;;;;;;;;5016958;28;19968;-25
2023/03/24 07:50:31;;;;;;;;;;;;;;;;;;5015426;28;19910;-24
2023/03/24 07:52:57;;;;;;;;;;;;;;;;;;5016391;28;19980;-25
2023/03/24 07:55:23;;;;;;;;;;;;;;;;;;5016690;28;19924;-25
2023/03/24 07:57:49;;;;;;;;;;;;;;;;;;5015359;28;19936;-24
2023/03/24 08:00:16;;;;;;;;;;;;;;;;;;5016504;28;20305;-24
2023/03/24 08:02:42;;;;;;;;;;;;;;;;;;5016061;28;19975;-24
2023/03/24 08:05:09;;;;;;;;;;;;;;;;;;5016547;28;20004;-24
2023/03/24 08:07:35;;;;;;;;;;;;;;;;;;5016315;28;19909;-24
2023/03/24 08:10:02;;;;;;;;;;;;;;;;;;5015492;28;19921;-25
2023/03/24 08:12:28;;;;;;;;;;;;;;;;;;5016344;28;20370;-25
2023/03/24 08:14:54;;;;;;;;;;;;;;;;;;5016062;28;19909;-24
2023/03/24 08:17:20;;;;;;;;;;;;;;;;;;5014803;28;20371;-25
2023/03/24 08:19:47;;;;;;;;;;;;;;;;;;5016002;28;19964;-24
2023/03/24 08:22:13;;;;;;;;;;;;;;;;;;5016143;28;19932;-25
2023/03/24 08:24:39;;;;;;;;;;;;;;;;;;5016127;28;20332;-25
2023/03/24 08:27:09;;;;;;;;;;;;;;;;;;5015898;28;20371;-24
2023/03/24 08:29:35;;;;;;;;;;;;;;;;;;5014636;28;20008;-25
2023/03/24 08:32:01;;;;;;;;;;;;;;;;;;5015940;28;19917;-24
2023/03/24 08:34:27;;;;;;;;;;;;;;;;;;5015607;28;19910;-25
2023/03/24 08:36:53;;;;;;;;;;;;;;;;;;5015655;28;19967;-26
2023/03/24 08:39:19;;;;;;;;;;;;;;;;;;5015990;28;20364;-24
2023/03/24 08:41:45;;;;;;;;;;;;;;;;;;5015775;28;19936;-24
2023/03/24 08:44:11;;;;;;;;;;;;;;;;;;5015819;28;19995;-25
2023/03/24 08:46:37;;;;;;;;;;;;;;;;;;5015747;28;19949;-24
2023/03/24 08:49:03;;;;;;;;;;;;;;;;;;5016071;28;20392;-25
2023/03/24 08:51:29;;;;;;;;;;;;;;;;;;5015558;28;19975;-24
2023/03/24 08:53:55;;;;;;;;;;;;;;;;;;5013704;28;20011;-24
2023/03/24 08:56:21;;;;;;;;;;;;;;;;;;5015528;28;19909;-25
2023/03/24 08:58:52;;;;;;;;;;;;;;;;;;5015433;28;19914;-24
2023/03/24 09:01:19;;;;;;;;;;;;;;;;;;5015595;28;19972;-25
2023/03/24 09:03:45;;;;;;;;;;;;;;;;;;5015028;28;20012;-25
2023/03/24 09:06:11;;;;;;;;;;;;;;;;;;5015355;28;20243;-24
2023/03/24 09:08:37;;;;;;;;;;;;;;;;;;5015295;28;19996;-24
2023/03/24 09:11:03;;;;;;;;;;;;;;;;;;5015166;28;20347;-25
2023/03/24 09:13:29;;;;;;;;;;;;;;;;;;5015316;28;19910;-24
2023/03/24 09:15:55;;;;;;;;;;;;;;;;;;5015165;28;20381;-24
2023/03/24 09:18:21;;;;;;;;;;;;;;;;;;5015101;28;20247;-25
2023/03/24 09:20:47;;;;;;;;;;;;;;;;;;5015136;28;20004;-24
2023/03/24 09:23:13;;;;;;;;;;;;;;;;;;5015129;28;19909;-24
2023/03/24 09:25:38;;;;;;;;;;;;;;;;;;5014979;28;19909;-25
2023/03/24 09:28:05;;;;;;;;;;;;;;;;;;5013788;28;20360;-25
2023/03/24 09:30:31;;;;;;;;;;;;;;;;;;5015297;28;19909;-24
2023/03/24 09:32:57;;;;;;;;;;;;;;;;;;5015010;28;20240;-25
2023/03/24 09:35:23;;;;;;;;;;;;;;;;;;5014923;28;19921;-24
2023/03/24 09:37:50;;;;;;;;;;;;;;;;;;5014919;28;19929;-25
2023/03/24 09:40:15;;;;;;;;;;;;;;;;;;5014691;28;19960;-25
2023/03/24 09:42:41;;;;;;;;;;;;;;;;;;5013573;28;19917;-24
2023/03/24 09:45:07;;;;;;;;;;;;;;;;;;5013302;28;19981;-26
2023/03/24 09:47:33;;;;;;;;;;;;;;;;;;5014488;28;20222;-25
2023/03/24 09:49:59;;;;;;;;;;;;;;;;;;5014488;28;19920;-25
2023/03/24 09:52:25;;;;;;;;;;;;;;;;;;5014338;28;19945;-25
2023/03/24 09:54:51;;;;;;;;;;;;;;;;;;5014494;28;20003;-25
2023/03/24 09:57:17;;;;;;;;;;;;;;;;;;5014406;28;19909;-25
2023/03/24 09:59:43;;;;;;;;;;;;;;;;;;5014626;28;19917;-25
2023/03/24 10:02:09;;;;;;;;;;;;;;;;;;5014302;28;20370;-25
2023/03/24 10:04:35;;;;;;;;;;;;;;;;;;5014402;28;19914;-25
2023/03/24 10:07:01;;;;;;;;;;;;;;;;;;5014295;28;20001;-24
2023/03/24 10:09:27;;;;;;;;;;;;;;;;;;5014311;28;19909;-25
2023/03/24 10:11:53;;;;;;;;;;;;;;;;;;5014092;28;20260;-24
2023/03/24 10:14:20;;;;;;;;;;;;;;;;;;5014198;28;19932;-25
2023/03/24 10:16:48;;;;;;;;;;;;;;;;;;5014453;28;19906;-25
2023/03/24 10:19:14;;;;;;;;;;;;;;;;;;5013975;28;19909;-24
2023/03/24 10:21:40;;;;;;;;;;;;;;;;;;5014642;28;20213;-25
2023/03/24 10:24:06;;;;;;;;;;;;;;;;;;5014712;28;19909;-24
2023/03/24 10:26:32;;;;;;;;;;;;;;;;;;5014372;28;19913;-24
2023/03/24 10:28:58;;;;;;;;;;;;;;;;;;5014517;28;19910;-24
2023/03/24 10:31:24;;;;;;;;;;;;;;;;;;5014223;28;19913;-25
2023/03/24 10:33:51;;;;;;;;;;;;;;;;;;5014231;28;19920;-25
2023/03/24 10:36:17;;;;;;;;;;;;;;;;;;5014204;28;19909;-24
2023/03/24 10:38:43;;;;;;;;;;;;;;;;;;5014786;28;19968;-24
2023/03/24 10:41:09;;;;;;;;;;;;;;;;;;5014572;28;20399;-24
2023/03/24 10:43:35;;;;;;;;;;;;;;;;;;5014501;28;20001;-24
2023/03/24 10:46:01;;;;;;;;;;;;;;;;;;5014226;28;20325;-25
2023/03/24 10:48:27;;;;;;;;;;;;;;;;;;5014398;28;19941;-24
2023/03/24 10:50:53;;;;;;;;;;;;;;;;;;5014219;28;19920;-25
2023/03/24 10:53:19;;;;;;;;;;;;;;;;;;5014112;28;19910;-25
2023/03/24 10:55:46;;;;;;;;;;;;;;;;;;5014141;28;19969;-24
2023/03/24 10:58:12;;;;;;;;;;;;;;;;;;5014008;28;20348;-24
2023/03/24 11:00:38;;;;;;;;;;;;;;;;;;5013906;28;20248;-25
2023/03/24 11:03:04;;;;;;;;;;;;;;;;;;5013690;28;20344;-25
2023/03/24 11:05:32;;;;;;;;;;;;;;;;;;5013954;28;19920;-25
2023/03/24 11:07:58;;;;;;;;;;;;;;;;;;5014000;28;19910;-24
2023/03/24 11:10:24;;;;;;;;;;;;;;;;;;5013893;28;19920;-24
2023/03/24 11:12:50;;;;;;;;;;;;;;;;;;5013749;28;19913;-25
2023/03/24 11:15:16;;;;;;;;;;;;;;;;;;5014110;28;19916;-25
2023/03/24 11:17:42;;;;;;;;;;;;;;;;;;5013974;28;19910;-25
2023/03/24 11:20:08;;;;;;;;;;;;;;;;;;5017833;28;19948;-25
2023/03/24 11:22:34;;;;;;;;;;;;;;;;;;5017452;28;19913;-24
2023/03/24 11:25:01;;;;;;;;;;;;;;;;;;5017727;28;20213;-24
2023/03/24 11:27:27;;;;;;;;;;;;;;;;;;5017456;28;20295;-24
2023/03/24 11:29:53;;;;;;;;;;;;;;;;;;5017269;28;19909;-24
2023/03/24 11:32:19;;;;;;;;;;;;;;;;;;5015994;28;19967;-25
2023/03/24 11:34:45;;;;;;;;;;;;;;;;;;5017128;28;19996;-25
2023/03/24 11:37:11;;;;;;;;;;;;;;;;;;5017051;28;19916;-24
2023/03/24 11:39:37;;;;;;;;;;;;;;;;;;5017117;28;19968;-25
2023/03/24 11:42:03;;;;;;;;;;;;;;;;;;5016979;28;19910;-25
2023/03/24 11:44:29;;;;;;;;;;;;;;;;;;5016985;28;20000;-25
2023/03/24 11:46:55;;;;;;;;;;;;;;;;;;5017150;28;19914;-24
2023/03/24 11:49:21;;;;;;;;;;;;;;;;;;5016675;28;19909;-25
2023/03/24 11:51:47;;;;;;;;;;;;;;;;;;5016782;28;19924;-25
2023/03/24 11:54:13;;;;;;;;;;;;;;;;;;5017010;28;19917;-24
2023/03/24 11:56:39;;;;;;;;;;;;;;;;;;5016699;28;19906;-25
2023/03/24 11:59:05;;;;;;;;;;;;;;;;;;5016906;28;19992;-25
2023/03/24 12:01:31;;;;;;;;;;;;;;;;;;5015482;28;19913;-24
2023/03/24 12:03:57;;;;;;;;;;;;;;;;;;5016283;28;19976;-25
2023/03/24 12:06:23;;;;;;;;;;;;;;;;;;5016932;28;19909;-24
2023/03/24 12:08:49;;;;;;;;;;;;;;;;;;5015501;28;20249;-24
2023/03/24 12:11:15;;;;;;;;;;;;;;;;;;5016449;28;19921;-24
2023/03/24 12:13:41;;;;;;;;;;;;;;;;;;5016348;28;19916;-25
2023/03/24 12:16:07;;;;;;;;;;;;;;;;;;5016263;28;19921;-25
2023/03/24 12:18:33;;;;;;;;;;;;;;;;;;5016087;28;19913;-25
2023/03/24 12:21:00;;;;;;;;;;;;;;;;;;5016446;28;19909;-25
2023/03/24 12:23:27;;;;;;;;;;;;;;;;;;5016512;28;19909;-25
2023/03/24 12:25:53;;;;;;;;;;;;;;;;;;5016390;28;19910;-25
2023/03/24 12:28:19;;;;;;;;;;;;;;;;;;5016428;28;19917;-24
2023/03/24 12:30:45;;;;;;;;;;;;;;;;;;5016284;28;20202;-25
2023/03/24 12:33:11;;;;;;;;;;;;;;;;;;5016270;28;19914;-25
2023/03/24 12:35:37;;;;;;;;;;;;;;;;;;5016116;28;20004;-24
2023/03/24 12:38:03;;;;;;;;;;;;;;;;;;5016406;28;19967;-24
2023/03/24 12:40:29;;;;;;;;;;;;;;;;;;5016068;28;20256;-24
2023/03/24 12:42:55;;;;;;;;;;;;;;;;;;5015840;28;19914;-24
2023/03/24 12:45:21;;;;;;;;;;;;;;;;;;5015924;28;19916;-24
2023/03/24 12:47:47;;;;;;;;;;;;;;;;;;5015821;28;19909;-25
2023/03/24 12:50:13;;;;;;;;;;;;;;;;;;5016048;28;19909;-25
2023/03/24 12:52:39;;;;;;;;;;;;;;;;;;5015713;28;19914;-25
2023/03/24 12:55:05;;;;;;;;;;;;;;;;;;5016017;28;20220;-24
2023/03/24 12:57:31;;;;;;;;;;;;;;;;;;5015533;28;19909;-25
2023/03/24 12:59:57;;;;;;;;;;;;;;;;;;5015685;28;19910;-24
2023/03/24 13:02:23;;;;;;;;;;;;;;;;;;5015468;28;19924;-24
2023/03/24 13:04:49;;;;;;;;;;;;;;;;;;5015759;28;19914;-25
2023/03/24 13:07:15;;;;;;;;;;;;;;;;;;5015319;28;19913;-24
2023/03/24 13:09:42;;;;;;;;;;;;;;;;;;5015568;28;19909;-25
2023/03/24 13:12:08;;;;;;;;;;;;;;;;;;5015379;28;19975;-25
2023/03/24 13:14:34;;;;;;;;;;;;;;;;;;5014054;28;19913;-25
2023/03/24 13:17:00;;;;;;;;;;;;;;;;;;5015080;28;19932;-25
2023/03/24 13:19:26;;;;;;;;;;;;;;;;;;5015423;28;20344;-24
2023/03/24 13:21:52;;;;;;;;;;;;;;;;;;5015331;28;19949;-25
2023/03/24 13:24:18;;;;;;;;;;;;;;;;;;5015325;28;20225;-25
2023/03/24 13:26:44;;;;;;;;;;;;;;;;;;5014077;28;19991;-24
2023/03/24 13:29:10;;;;;;;;;;;;;;;;;;5015039;28;20373;-25
2023/03/24 13:31:36;;;;;;;;;;;;;;;;;;5015184;28;19921;-24
2023/03/24 13:34:02;;;;;;;;;;;;;;;;;;5014754;28;20352;-25
2023/03/24 13:36:28;;;;;;;;;;;;;;;;;;5013770;28;20277;-25
2023/03/24 13:38:54;;;;;;;;;;;;;;;;;;5015092;28;19941;-25
2023/03/24 13:41:22;;;;;;;;;;;;;;;;;;5014202;28;19910;-25
2023/03/24 13:43:48;;;;;;;;;;;;;;;;;;5015014;28;19964;-25
2023/03/24 13:46:14;;;;;;;;;;;;;;;;;;5014777;28;19926;-24
2023/03/24 13:48:41;;;;;;;;;;;;;;;;;;5014695;28;20059;-25
2023/03/24 13:51:07;;;;;;;;;;;;;;;;;;5014695;28;19928;-25
2023/03/24 13:53:33;;;;;;;;;;;;;;;;;;5014963;28;20225;-25
2023/03/24 13:56:00;;;;;;;;;;;;;;;;;;5014616;28;19960;-24
2023/03/24 13:58:27;;;;;;;;;;;;;;;;;;5014608;28;19929;-24
2023/03/24 14:00:53;;;;;;;;;;;;;;;;;;5013392;28;19916;-25
2023/03/24 14:03:21;;;;;;;;;;;;;;;;;;5014466;28;20027;-24
2023/03/24 14:05:47;;;;;;;;;;;;;;;;;;5013681;28;20291;-25
2023/03/24 14:08:13;;;;;;;;;;;;;;;;;;5014857;28;19929;-25
2023/03/24 14:10:39;;;;;;;;;;;;;;;;;;5014750;28;19921;-25
2023/03/24 14:13:05;;;;;;;;;;;;;;;;;;5014457;28;19917;-25
2023/03/24 14:15:31;;;;;;;;;;;;;;;;;;5014877;28;19920;-25
2023/03/24 14:17:56;;;;;;;;;;;;;;;;;;5014703;28;20264;-25
2023/03/24 14:20:22;;;;;;;;;;;;;;;;;;5014619;28;20333;-24
2023/03/24 14:22:50;;;;;;;;;;;;;;;;;;5014497;28;19921;-25
2023/03/24 14:25:16;;;;;;;;;;;;;;;;;;5015499;28;20216;-24
2023/03/24 14:27:42;;;;;;;;;;;;;;;;;;5013447;28;20016;-25
2023/03/24 14:30:08;;;;;;;;;;;;;;;;;;5014627;28;19917;-25
2023/03/24 14:32:34;;;;;;;;;;;;;;;;;;5013462;28;19971;-25
2023/03/24 14:35:00;;;;;;;;;;;;;;;;;;5013430;28;19909;-25
2023/03/24 14:37:26;;;;;;;;;;;;;;;;;;5013455;28;20019;-24
2023/03/24 14:39:53;;;;;;;;;;;;;;;;;;5014416;28;19917;-24
2023/03/24 14:42:19;;;;;;;;;;;;;;;;;;5014260;28;19910;-24
2023/03/24 14:44:45;;;;;;;;;;;;;;;;;;5014098;28;20004;-25
2023/03/24 14:47:11;;;;;;;;;;;;;;;;;;5014066;28;19909;-24
2023/03/24 14:49:37;;;;;;;;;;;;;;;;;;5014068;28;20234;-25
2023/03/24 14:52:03;;;;;;;;;;;;;;;;;;5013881;28;20015;-37
2023/03/24 14:54:29;;;;;;;;;;;;;;;;;;5017843;28;20237;-25
2023/03/24 14:56:55;;;;;;;;;;;;;;;;;;5018168;28;19966;-24
2023/03/24 14:59:21;;;;;;;;;;;;;;;;;;5017848;28;19975;-24
2023/03/24 15:01:47;;;;;;;;;;;;;;;;;;5017693;28;20033;-25
2023/03/24 15:04:13;;;;;;;;;;;;;;;;;;5017516;28;20030;-24
2023/03/24 15:06:39;;;;;;;;;;;;;;;;;;5017670;28;19905;-24
2023/03/24 15:09:06;;;;;;;;;;;;;;;;;;5017673;28;19980;-24
2023/03/24 15:11:31;;;;;;;;;;;;;;;;;;5017324;28;19960;-25
2023/03/24 15:13:58;;;;;;;;;;;;;;;;;;5017375;28;19909;-24
2023/03/24 15:16:24;;;;;;;;;;;;;;;;;;5017536;28;20000;-24
2023/03/24 15:18:50;;;;;;;;;;;;;;;;;;5017416;28;19914;-25
2023/03/24 15:21:16;;;;;;;;;;;;;;;;;;5017427;28;20424;-24
2023/03/24 15:23:42;;;;;;;;;;;;;;;;;;5017420;28;19917;-25
2023/03/24 15:26:08;;;;;;;;;;;;;;;;;;5017192;28;19909;-25
2023/03/24 15:28:35;;;;;;;;;;;;;;;;;;5017593;28;19910;-25
2023/03/24 15:31:01;;;;;;;;;;;;;;;;;;5017301;28;20317;-25
2023/03/24 15:33:34;;;;;;;;;;;;;;;;;;5016854;28;19929;-25
2023/03/24 15:36:01;;;;;;;;;;;;;;;;;;5017216;28;19909;-25
2023/03/24 15:38:26;;;;;;;;;;;;;;;;;;5017020;28;20253;-25
2023/03/24 15:40:52;;;;;;;;;;;;;;;;;;5017070;28;19909;-25
2023/03/24 15:43:19;;;;;;;;;;;;;;;;;;5016883;28;20297;-25
2023/03/24 15:45:47;;;;;;;;;;;;;;;;;;5016859;28;19979;-25
2023/03/24 15:48:14;;;;;;;;;;;;;;;;;;5017206;28;20214;-24
2023/03/24 15:50:40;;;;;;;;;;;;;;;;;;5016896;28;19928;-25
2023/03/24 15:53:06;;;;;;;;;;;;;;;;;;5017101;28;20325;-25
2023/03/24 15:55:33;;;;;;;;;;;;;;;;;;5015770;28;20303;-25
2023/03/24 15:58:00;;;;;;;;;;;;;;;;;;5016553;28;20020;-24
2023/03/24 16:00:26;;;;;;;;;;;;;;;;;;5016642;28;19909;-25
2023/03/24 16:02:52;;;;;;;;;;;;;;;;;;5015464;28;20008;-24
2023/03/24 16:05:18;;;;;;;;;;;;;;;;;;5016623;28;20305;-24
2023/03/24 16:07:44;;;;;;;;;;;;;;;;;;5016578;28;19910;-25
2023/03/24 16:10:10;;;;;;;;;;;;;;;;;;5016478;28;19932;-25
2023/03/24 16:12:36;;;;;;;;;;;;;;;;;;5016047;28;20345;-24
2023/03/24 16:15:04;;;;;;;;;;;;;;;;;;5015407;28;20190;-24
2023/03/24 16:17:30;;;;;;;;;;;;;;;;;;5015532;28;19914;-25
2023/03/24 16:19:56;;;;;;;;;;;;;;;;;;5014087;28;19916;-25
2023/03/24 16:22:22;;;;;;;;;;;;;;;;;;5015263;28;19993;-23
2023/03/24 16:24:48;;;;;;;;;;;;;;;;;;5015153;28;19906;-25
2023/03/24 16:27:14;;;;;;;;;;;;;;;;;;5015148;28;19973;-25
2023/03/24 16:29:40;;;;;;;;;;;;;;;;;;5015035;28;19985;-24
2023/03/24 16:32:06;;;;;;;;;;;;;;;;;;5014729;28;20004;-24
2023/03/24 16:34:32;;;;;;;;;;;;;;;;;;5014841;28;19953;-31
2023/03/24 16:36:58;;;;;;;;;;;;;;;;;;5014851;28;19910;-24
2023/03/24 16:39:24;;;;;;;;;;;;;;;;;;5013870;28;20014;-24